createdAt,value
2022-12-03T00:01:21.725Z,23.60
2022-12-03T00:03:50.188Z,26.53
2022-12-03T00:06:18.877Z,9.80
2022-12-03T00:08:47.048Z,23.73
2022-12-03T00:11:15.338Z,22.97
2022-12-03T00:13:45.514Z,16.27
2022-12-03T00:16:13.983Z,25.13
2022-12-03T00:18:42.321Z,20.00
2022-12-03T00:21:10.548Z,22.80
2022-12-03T00:23:42.357Z,26.30
2022-12-03T00:26:10.852Z,27.20
2022-12-03T00:28:39.053Z,15.07
2022-12-03T00:31:08.791Z,26.53
2022-12-03T00:33:36.964Z,16.27
2022-12-03T00:36:05.252Z,21.87
2022-12-03T00:38:33.522Z,23.90
2022-12-03T00:41:01.725Z,22.77
2022-12-03T00:43:29.897Z,21.43
2022-12-03T00:45:58.241Z,20.50
2022-12-03T00:48:27.859Z,24.50
2022-12-03T00:50:56.086Z,24.00
2022-12-03T00:53:24.311Z,20.63
2022-12-03T00:55:52.542Z,22.07
2022-12-03T00:58:20.888Z,14.27
2022-12-03T01:00:49.109Z,19.80
2022-12-03T01:03:17.375Z,24.63
2022-12-03T01:05:46.924Z,17.27
2022-12-03T01:08:15.259Z,26.77
2022-12-03T01:10:43.465Z,19.90
2022-12-03T01:13:11.677Z,21.93
2022-12-03T01:15:39.866Z,20.73
2022-12-03T01:18:08.131Z,18.80
2022-12-03T01:20:36.532Z,22.23
2022-12-03T01:23:06.149Z,18.00
2022-12-03T01:25:34.426Z,19.27
2022-12-03T01:28:02.733Z,16.13
2022-12-03T01:30:51.022Z,24.57
2022-12-03T01:33:18.326Z,12.70
2022-12-03T01:35:46.492Z,23.67
2022-12-03T01:38:16.096Z,26.07
2022-12-03T01:40:44.323Z,23.70
2022-12-03T01:43:12.572Z,21.77
2022-12-03T01:45:40.802Z,21.60
2022-12-03T01:48:10.743Z,21.43
2022-12-03T01:50:38.993Z,14.73
2022-12-03T01:53:07.266Z,19.77
2022-12-03T01:55:36.811Z,23.83
2022-12-03T01:58:05.527Z,22.77
2022-12-03T02:00:33.804Z,18.83
2022-12-03T02:03:03.115Z,24.67
2022-12-03T02:05:32.388Z,22.70
2022-12-03T02:08:00.879Z,23.43
2022-12-03T02:10:31.040Z,22.83
2022-12-03T02:13:01.646Z,16.77
2022-12-03T02:15:30.038Z,19.40
2022-12-03T02:17:58.779Z,16.13
2022-12-03T02:20:27.010Z,18.93
2022-12-03T02:22:57.824Z,20.20
2022-12-03T02:25:29.197Z,23.33
2022-12-03T02:27:57.655Z,22.40
2022-12-03T02:30:26.727Z,16.10
2022-12-03T02:32:55.394Z,12.00
2022-12-03T02:35:24.708Z,25.80
2022-12-03T02:37:54.659Z,20.77
2022-12-03T02:40:24.453Z,17.80
2022-12-03T02:42:56.952Z,19.90
2022-12-03T02:45:26.537Z,20.63
2022-12-03T02:47:56.501Z,11.70
2022-12-03T02:50:26.993Z,17.77
2022-12-03T02:52:57.300Z,22.20
2022-12-03T02:55:25.963Z,18.03
2022-12-03T02:57:55.583Z,19.53
2022-12-03T03:00:24.121Z,20.53
2022-12-03T03:02:52.362Z,13.77
2022-12-03T03:05:22.243Z,21.70
2022-12-03T03:07:51.014Z,16.30
2022-12-03T03:10:20.727Z,24.10
2022-12-03T03:12:49.159Z,16.20
2022-12-03T03:15:18.836Z,19.00
2022-12-03T03:17:47.107Z,13.23
2022-12-03T03:20:15.831Z,23.60
2022-12-03T03:22:44.759Z,17.57
2022-12-03T03:25:15.332Z,20.63
2022-12-03T03:27:44.104Z,16.10
2022-12-03T03:30:13.362Z,19.73
2022-12-03T03:32:43.750Z,20.27
2022-12-03T03:35:14.024Z,18.80
2022-12-03T03:37:43.104Z,20.43
2022-12-03T03:40:11.680Z,19.73
2022-12-03T03:42:40.136Z,23.13
2022-12-03T03:45:09.227Z,22.40
2022-12-03T03:47:37.699Z,26.67
2022-12-03T03:50:08.201Z,16.07
2022-12-03T03:52:36.632Z,20.57
2022-12-03T03:55:05.012Z,21.33
2022-12-03T03:57:33.237Z,21.23
2022-12-03T04:00:01.693Z,18.53
2022-12-03T04:02:30.198Z,19.93
2022-12-03T04:04:58.368Z,21.17
2022-12-03T04:07:28.662Z,13.67
2022-12-03T04:09:56.883Z,21.60
2022-12-03T04:12:43.010Z,19.53
2022-12-03T04:15:11.433Z,23.20
2022-12-03T04:17:39.668Z,11.77
2022-12-03T04:20:08.346Z,22.67
2022-12-03T04:22:39.915Z,19.00
2022-12-03T04:25:26.520Z,18.93
2022-12-03T04:28:12.453Z,20.60
2022-12-03T04:30:41.015Z,21.23
2022-12-03T04:33:26.921Z,17.80
2022-12-03T04:35:55.282Z,17.50
2022-12-03T04:38:24.908Z,16.60
2022-12-03T04:41:03.725Z,26.27
2022-12-03T04:43:32.763Z,15.13
2022-12-03T04:46:01.409Z,17.20
2022-12-03T04:48:29.677Z,19.83
2022-12-03T04:50:57.901Z,12.03
2022-12-03T04:53:27.466Z,18.00
2022-12-03T04:55:55.675Z,15.50
2022-12-03T04:58:23.825Z,20.77
2022-12-03T05:00:52.993Z,19.20
2022-12-03T05:03:21.192Z,18.83
2022-12-03T05:05:49.412Z,18.00
2022-12-03T05:08:17.672Z,25.57
2022-12-03T05:10:47.274Z,21.10
2022-12-03T05:13:15.442Z,17.23
2022-12-03T05:15:43.648Z,21.50
2022-12-03T05:18:11.883Z,15.20
2022-12-03T05:20:45.854Z,16.90
2022-12-03T05:23:17.931Z,20.47
2022-12-03T05:25:47.598Z,16.37
2022-12-03T05:28:15.903Z,21.10
2022-12-03T05:30:44.269Z,21.03
2022-12-03T05:33:12.530Z,24.00
2022-12-03T05:35:40.746Z,6.40
2022-12-03T05:38:08.935Z,23.40
2022-12-03T05:40:37.170Z,19.70
2022-12-03T05:43:05.826Z,19.20
2022-12-03T05:45:34.976Z,16.80
2022-12-03T05:48:03.615Z,19.07
2022-12-03T05:50:33.526Z,21.37
2022-12-03T05:53:01.992Z,19.67
2022-12-03T05:55:30.377Z,21.60
2022-12-03T05:57:58.586Z,23.17
2022-12-03T06:00:29.304Z,22.30
2022-12-03T06:02:57.702Z,21.63
2022-12-03T06:05:26.430Z,20.87
2022-12-03T06:07:54.930Z,23.70
2022-12-03T06:10:23.983Z,23.50
2022-12-03T06:12:52.695Z,15.13
2022-12-03T06:15:21.520Z,15.93
2022-12-03T06:17:51.255Z,19.73
2022-12-03T06:20:20.479Z,26.30
2022-12-03T06:22:48.722Z,15.47
2022-12-03T06:25:17.119Z,12.10
2022-12-03T06:27:45.447Z,22.20
2022-12-03T06:30:14.938Z,19.67
2022-12-03T06:32:43.150Z,22.00
2022-12-03T06:35:12.712Z,19.87
2022-12-03T06:37:40.896Z,20.00
2022-12-03T06:40:10.050Z,16.07
2022-12-03T06:42:38.220Z,18.00
2022-12-03T06:45:06.862Z,20.03
2022-12-03T06:47:35.076Z,17.70
2022-12-03T06:50:03.249Z,17.63
2022-12-03T06:52:32.871Z,26.77
2022-12-03T06:55:01.032Z,22.30
2022-12-03T06:57:29.226Z,20.73
2022-12-03T06:59:57.473Z,22.07
2022-12-03T07:02:25.839Z,17.77
2022-12-03T07:04:54.907Z,19.47
2022-12-03T07:07:23.229Z,16.53
2022-12-03T07:09:52.797Z,28.80
2022-12-03T07:12:20.982Z,19.80
2022-12-03T07:14:49.283Z,27.00
2022-12-03T07:17:17.712Z,19.30
2022-12-03T07:19:45.969Z,23.47
2022-12-03T07:22:14.177Z,27.73
2022-12-03T07:24:42.611Z,21.83
2022-12-03T07:27:12.232Z,25.83
2022-12-03T07:29:40.470Z,30.10
2022-12-03T07:32:08.623Z,23.70
2022-12-03T07:34:36.837Z,19.67
2022-12-03T07:37:05.033Z,20.60
2022-12-03T07:39:33.327Z,18.60
2022-12-03T07:42:02.013Z,18.87
2022-12-03T07:44:32.349Z,18.57
2022-12-03T07:47:00.652Z,25.20
2022-12-03T07:49:28.953Z,20.60
2022-12-03T07:51:57.224Z,21.03
2022-12-03T07:54:26.076Z,22.77
2022-12-03T07:56:59.542Z,21.53
2022-12-03T07:59:29.739Z,30.00
2022-12-03T08:01:59.358Z,25.43
2022-12-03T08:04:27.670Z,22.97
2022-12-03T08:06:56.019Z,20.10
2022-12-03T08:09:24.270Z,22.33
2022-12-03T08:11:52.502Z,23.17
2022-12-03T08:14:21.618Z,15.80
2022-12-03T08:16:50.148Z,25.77
2022-12-03T08:19:20.156Z,24.07
2022-12-03T08:21:48.341Z,23.47
2022-12-03T08:24:17.629Z,22.97
2022-12-03T08:26:46.585Z,22.80
2022-12-03T08:29:15.893Z,18.57
2022-12-03T08:31:44.512Z,26.63
2022-12-03T08:34:18.226Z,16.60
2022-12-03T08:36:47.976Z,23.73
2022-12-03T08:39:23.903Z,22.80
2022-12-03T08:42:13.945Z,18.87
2022-12-03T08:44:42.456Z,17.93
2022-12-03T08:47:13.256Z,11.20
2022-12-03T08:49:42.091Z,18.73
2022-12-03T08:52:15.174Z,18.10
2022-12-03T08:54:43.841Z,21.00
2022-12-03T08:57:24.120Z,21.60
2022-12-03T08:59:52.860Z,18.60
2022-12-03T09:02:28.044Z,20.80
2022-12-03T09:04:56.455Z,18.60
2022-12-03T09:07:26.186Z,20.23
2022-12-03T09:09:54.470Z,15.77
2022-12-03T09:12:29.594Z,19.97
2022-12-03T09:14:58.027Z,20.90
2022-12-03T09:17:26.567Z,22.93
2022-12-03T09:19:54.844Z,21.40
2022-12-03T09:22:23.069Z,17.90
2022-12-03T09:24:52.857Z,25.93
2022-12-03T09:27:22.717Z,17.37
2022-12-03T09:29:50.959Z,21.27
2022-12-03T09:32:19.302Z,17.47
2022-12-03T09:34:47.658Z,14.57
2022-12-03T09:37:16.291Z,20.93
2022-12-03T09:39:44.558Z,22.60
2022-12-03T09:42:14.104Z,21.03
2022-12-03T09:44:42.350Z,17.27
2022-12-03T09:47:10.589Z,21.20
2022-12-03T09:49:39.144Z,19.40
2022-12-03T09:52:07.997Z,18.00
2022-12-03T09:54:41.572Z,19.20
2022-12-03T09:57:14.223Z,20.87
2022-12-03T09:59:42.513Z,20.70
2022-12-03T10:02:13.170Z,17.33
2022-12-03T10:04:41.530Z,18.87
2022-12-03T10:07:11.558Z,14.07
2022-12-03T10:09:39.816Z,21.10
2022-12-03T10:12:08.118Z,21.80
2022-12-03T10:14:37.704Z,23.00
2022-12-03T10:17:06.022Z,22.60
2022-12-03T10:19:37.442Z,19.13
2022-12-03T10:22:05.711Z,12.90
2022-12-03T10:24:34.870Z,18.70
2022-12-03T10:27:05.690Z,22.27
2022-12-03T10:29:35.104Z,19.30
2022-12-03T10:32:05.565Z,19.87
2022-12-03T10:34:34.783Z,24.50
2022-12-03T10:37:13.037Z,21.13
2022-12-03T10:39:58.117Z,22.87
2022-12-03T10:42:26.748Z,18.63
2022-12-03T10:45:25.301Z,24.17
2022-12-03T10:48:05.642Z,18.57
2022-12-03T10:50:34.320Z,21.20
2022-12-03T10:53:02.554Z,25.83
2022-12-03T10:55:31.285Z,17.73
2022-12-03T10:58:01.541Z,21.27
2022-12-03T11:00:29.786Z,23.53
2022-12-03T11:03:00.111Z,22.60
2022-12-03T11:05:30.005Z,17.20
2022-12-03T11:07:58.391Z,18.57
2022-12-03T11:10:26.850Z,23.07
2022-12-03T11:13:13.993Z,22.47
2022-12-03T11:15:46.519Z,22.57
2022-12-03T11:18:36.443Z,14.70
2022-12-03T11:21:07.304Z,22.53
2022-12-03T11:23:59.239Z,21.27
2022-12-03T11:26:46.392Z,20.93
2022-12-03T11:29:15.337Z,19.50
2022-12-03T11:31:45.413Z,20.40
2022-12-03T11:34:32.483Z,19.20
2022-12-03T11:37:19.519Z,19.93
2022-12-03T11:40:11.664Z,18.73
2022-12-03T11:42:41.975Z,21.77
2022-12-03T11:45:17.935Z,22.80
2022-12-03T11:47:47.404Z,21.20
2022-12-03T11:50:22.045Z,17.73
2022-12-03T11:52:54.213Z,20.90
2022-12-03T11:55:28.238Z,24.77
2022-12-03T11:58:00.280Z,27.77
2022-12-03T12:00:28.599Z,22.63
2022-12-03T12:02:58.080Z,23.83
2022-12-03T12:05:29.040Z,17.97
2022-12-03T12:07:57.442Z,23.80
2022-12-03T12:10:45.659Z,24.03
2022-12-03T12:13:28.436Z,16.60
2022-12-03T12:15:56.782Z,23.30
2022-12-03T12:18:38.980Z,22.20
2022-12-03T12:21:25.761Z,21.07
2022-12-03T12:23:53.944Z,21.13
2022-12-03T12:26:22.497Z,16.33
2022-12-03T12:28:52.142Z,21.37
2022-12-03T12:31:20.440Z,22.70
2022-12-03T12:33:48.667Z,21.80
2022-12-03T12:36:16.997Z,23.50
2022-12-03T12:38:45.181Z,26.47
2022-12-03T12:41:13.400Z,22.00
2022-12-03T12:43:41.904Z,22.37
2022-12-03T12:46:46.118Z,22.03
2022-12-03T12:49:03.017Z,22.67
2022-12-03T12:51:31.225Z,20.57
2022-12-03T12:53:59.494Z,22.10
2022-12-03T12:56:30.181Z,28.27
2022-12-03T12:58:59.300Z,24.73
2022-12-03T13:01:30.171Z,17.47
2022-12-03T13:03:58.820Z,22.43
2022-12-03T13:06:28.071Z,23.00
2022-12-03T13:08:56.524Z,32.00
2022-12-03T13:11:34.343Z,26.80
2022-12-03T13:14:05.513Z,20.80
2022-12-03T13:16:35.573Z,19.57
2022-12-03T13:19:04.293Z,24.90
2022-12-03T13:21:38.517Z,29.27
2022-12-03T13:24:26.445Z,24.97
2022-12-03T13:26:54.711Z,24.63
2022-12-03T13:29:23.744Z,40.57
2022-12-03T13:31:54.558Z,20.37
2022-12-03T13:34:24.483Z,25.30
2022-12-03T13:37:13.990Z,22.03
2022-12-03T13:39:47.582Z,29.80
2022-12-03T13:42:39.596Z,30.93
2022-12-03T13:45:24.709Z,24.80
2022-12-03T13:47:57.528Z,25.53
2022-12-03T13:50:27.543Z,24.67
2022-12-03T13:52:56.523Z,24.30
2022-12-03T13:55:26.761Z,28.10
2022-12-03T13:57:55.023Z,20.03
2022-12-03T14:00:23.581Z,28.27
2022-12-03T14:02:51.929Z,22.37
2022-12-03T14:05:21.543Z,22.03
2022-12-03T14:07:51.849Z,26.00
2022-12-03T14:10:20.202Z,30.10
2022-12-03T14:12:48.438Z,32.97
2022-12-03T14:15:18.716Z,29.07
2022-12-03T14:17:46.921Z,26.63
2022-12-03T14:20:16.439Z,33.20
2022-12-03T14:22:46.070Z,27.37
2022-12-03T14:25:14.308Z,32.13
2022-12-03T14:27:43.661Z,30.87
2022-12-03T14:30:12.498Z,26.73
2022-12-03T14:32:40.743Z,26.07
2022-12-03T14:35:17.383Z,25.93
2022-12-03T14:37:46.967Z,29.37
2022-12-03T14:40:20.956Z,33.13
2022-12-03T14:42:49.798Z,25.30
2022-12-03T14:45:18.199Z,27.07
2022-12-03T14:47:46.451Z,29.27
2022-12-03T14:50:14.725Z,23.90
2022-12-03T14:52:43.336Z,28.80
2022-12-03T14:55:12.998Z,32.27
2022-12-03T14:57:42.280Z,29.47
2022-12-03T15:00:11.229Z,32.20
2022-12-03T15:02:39.564Z,24.57
2022-12-03T15:05:08.333Z,28.30
2022-12-03T15:07:38.584Z,27.00
2022-12-03T15:10:08.567Z,26.63
2022-12-03T15:12:38.156Z,25.93
2022-12-03T15:15:06.717Z,26.43
2022-12-03T15:17:35.365Z,36.00
2022-12-03T15:20:03.833Z,28.00
2022-12-03T15:22:32.026Z,25.33
2022-12-03T15:25:02.485Z,29.73
2022-12-03T15:27:30.672Z,33.10
2022-12-03T15:30:00.300Z,27.83
2022-12-03T15:32:28.578Z,29.17
2022-12-03T15:34:56.856Z,25.10
2022-12-03T15:37:27.486Z,24.77
2022-12-03T15:39:55.997Z,28.10
2022-12-03T15:42:24.645Z,26.13
2022-12-03T15:44:53.184Z,23.63
2022-12-03T15:47:22.763Z,24.40
2022-12-03T15:49:51.163Z,30.80
2022-12-03T15:52:19.636Z,34.13
2022-12-03T15:54:49.455Z,34.57
2022-12-03T15:57:17.897Z,26.27
2022-12-03T15:59:48.195Z,27.60
2022-12-03T16:02:16.547Z,35.53
2022-12-03T16:04:46.239Z,26.17
2022-12-03T16:07:14.670Z,29.17
2022-12-03T16:09:43.988Z,29.13
2022-12-03T16:12:12.210Z,25.33
2022-12-03T16:14:40.416Z,30.53
2022-12-03T16:17:08.621Z,28.87
2022-12-03T16:19:36.795Z,29.23
2022-12-03T16:22:08.373Z,25.80
2022-12-03T16:24:36.610Z,26.33
2022-12-03T16:27:04.917Z,34.87
2022-12-03T16:29:33.194Z,30.13
2022-12-03T16:32:01.431Z,31.93
2022-12-03T16:34:29.644Z,27.43
2022-12-03T16:36:57.892Z,29.23
2022-12-03T16:39:27.507Z,35.37
2022-12-03T16:41:55.778Z,33.47
2022-12-03T16:44:32.652Z,25.30
2022-12-03T16:47:01.490Z,21.00
2022-12-03T16:49:29.967Z,37.87
2022-12-03T16:52:00.175Z,32.13
2022-12-03T16:54:29.809Z,31.93
2022-12-03T16:56:58.007Z,38.87
2022-12-03T16:59:27.576Z,23.90
2022-12-03T17:01:55.922Z,30.40
2022-12-03T17:04:29.593Z,33.37
2022-12-03T17:06:57.756Z,30.40
2022-12-03T17:09:26.031Z,26.33
2022-12-03T17:11:55.606Z,29.30
2022-12-03T17:14:27.276Z,33.77
2022-12-03T17:16:58.199Z,25.93
2022-12-03T17:19:26.414Z,35.13
2022-12-03T17:21:54.631Z,27.50
2022-12-03T17:24:22.914Z,31.90
2022-12-03T17:26:51.150Z,36.17
2022-12-03T17:29:20.782Z,33.90
2022-12-03T17:31:49.042Z,32.80
2022-12-03T17:34:17.304Z,34.63
2022-12-03T17:36:45.510Z,34.60
2022-12-03T17:39:13.777Z,32.87
2022-12-03T17:41:42.008Z,29.30
2022-12-03T17:44:12.202Z,34.27
2022-12-03T17:46:44.821Z,32.83
2022-12-03T17:49:13.127Z,37.70
2022-12-03T17:51:41.387Z,28.53
2022-12-03T17:54:09.677Z,33.27
2022-12-03T17:56:39.233Z,35.80
2022-12-03T17:59:07.446Z,37.70
2022-12-03T18:01:35.702Z,31.17
2022-12-03T18:04:05.383Z,39.60
2022-12-03T18:06:33.703Z,41.57
2022-12-03T18:09:01.867Z,27.70
2022-12-03T18:11:30.163Z,25.47
2022-12-03T18:13:58.543Z,28.20
2022-12-03T18:16:32.987Z,35.37
2022-12-03T18:19:06.255Z,32.20
2022-12-03T18:21:39.344Z,38.33
2022-12-03T18:24:07.931Z,31.00
2022-12-03T18:26:40.103Z,35.20
2022-12-03T18:29:08.347Z,30.73
2022-12-03T18:31:36.654Z,32.50
2022-12-03T18:34:04.994Z,19.60
2022-12-03T18:36:36.141Z,36.47
2022-12-03T18:39:08.877Z,31.53
2022-12-03T18:41:37.290Z,34.03
2022-12-03T18:44:06.215Z,44.03
2022-12-03T18:46:53.125Z,28.17
2022-12-03T18:49:23.582Z,37.40
2022-12-03T18:51:58.738Z,35.83
2022-12-03T18:54:29.064Z,41.10
2022-12-03T18:56:57.282Z,39.43
2022-12-03T18:59:25.565Z,34.23
2022-12-03T19:01:53.810Z,33.90
2022-12-03T19:04:22.160Z,31.37
2022-12-03T19:06:50.482Z,38.63
2022-12-03T19:09:18.909Z,36.30
2022-12-03T19:11:48.516Z,36.63
2022-12-03T19:14:16.858Z,33.80
2022-12-03T19:16:45.472Z,32.60
2022-12-03T19:19:13.699Z,33.47
2022-12-03T19:21:41.915Z,38.23
2022-12-03T19:24:25.899Z,39.37
2022-12-03T19:26:55.604Z,21.00
2022-12-03T19:29:24.063Z,33.50
2022-12-03T19:31:52.650Z,41.93
2022-12-03T19:34:20.972Z,37.07
2022-12-03T19:36:49.203Z,33.60
2022-12-03T19:39:17.402Z,41.93
2022-12-03T19:41:45.678Z,42.30
2022-12-03T19:44:16.023Z,27.60
2022-12-03T19:46:44.759Z,34.30
2022-12-03T19:49:13.259Z,35.93
2022-12-03T19:51:41.531Z,30.17
2022-12-03T19:54:10.347Z,36.67
2022-12-03T19:56:38.636Z,39.77
2022-12-03T19:59:07.951Z,38.73
2022-12-03T20:01:40.325Z,42.17
2022-12-03T20:04:09.233Z,29.30
2022-12-03T20:06:39.076Z,37.57
2022-12-03T20:09:08.592Z,34.23
2022-12-03T20:11:36.915Z,35.50
2022-12-03T20:14:06.158Z,32.67
2022-12-03T20:16:34.813Z,35.03
2022-12-03T20:19:05.676Z,36.93
2022-12-03T20:21:35.019Z,32.27
2022-12-03T20:24:03.669Z,36.47
2022-12-03T20:26:31.851Z,41.43
2022-12-03T20:29:00.131Z,37.00
2022-12-03T20:31:29.269Z,32.97
2022-12-03T20:33:58.181Z,36.93
2022-12-03T20:36:28.660Z,34.63
2022-12-03T20:38:57.259Z,31.00
2022-12-03T20:41:25.569Z,35.90
2022-12-03T20:43:54.636Z,45.37
2022-12-03T20:46:25.401Z,33.00
2022-12-03T20:48:55.046Z,31.53
2022-12-03T20:51:24.119Z,38.90
2022-12-03T20:53:53.708Z,42.07
2022-12-03T20:56:23.199Z,31.47
2022-12-03T20:58:51.643Z,30.87
2022-12-03T21:01:21.148Z,37.47
2022-12-03T21:03:49.669Z,35.70
2022-12-03T21:06:18.267Z,38.93
2022-12-03T21:08:46.802Z,35.10
2022-12-03T21:11:18.091Z,35.33
2022-12-03T21:13:46.678Z,39.20
2022-12-03T21:16:16.181Z,31.43
2022-12-03T21:18:44.782Z,36.40
2022-12-03T21:21:14.182Z,32.57
2022-12-03T21:23:42.483Z,37.43
2022-12-03T21:26:13.906Z,33.50
2022-12-03T21:28:44.311Z,42.87
2022-12-03T21:31:14.277Z,30.13
2022-12-03T21:33:42.544Z,40.13
2022-12-03T21:36:11.430Z,35.13
2022-12-03T21:38:41.172Z,37.03
2022-12-03T21:41:09.863Z,36.43
2022-12-03T21:43:38.119Z,29.40
2022-12-03T21:47:10.470Z,30.00
2022-12-03T21:48:56.352Z,40.10
2022-12-03T21:51:24.600Z,23.93
2022-12-03T21:53:52.841Z,35.50
2022-12-03T21:56:21.433Z,18.13
2022-12-03T21:58:49.737Z,38.03
2022-12-03T22:01:20.582Z,32.00
2022-12-03T22:03:48.992Z,30.53
2022-12-03T22:06:17.781Z,30.23
2022-12-03T22:08:46.013Z,29.53
2022-12-03T22:11:15.041Z,33.47
2022-12-03T22:13:43.296Z,26.37
2022-12-03T22:16:13.168Z,19.33
2022-12-03T22:18:44.016Z,15.63
2022-12-03T22:21:15.433Z,28.63
2022-12-03T22:23:43.816Z,25.80
2022-12-03T22:26:13.362Z,28.03
2022-12-03T22:28:43.916Z,34.30
2022-12-03T22:31:12.513Z,29.77
2022-12-03T22:33:41.123Z,29.13
2022-12-03T22:36:19.615Z,30.77
2022-12-03T22:38:48.758Z,36.60
2022-12-03T22:41:17.330Z,33.23
2022-12-03T22:43:46.310Z,21.07
2022-12-03T22:46:14.659Z,23.70
2022-12-03T22:48:43.703Z,29.83
2022-12-03T22:51:14.472Z,36.00
2022-12-03T22:53:42.726Z,29.63
2022-12-03T22:56:11.032Z,34.10
2022-12-03T22:58:40.095Z,42.07
2022-12-03T23:01:08.439Z,30.53
2022-12-03T23:03:36.887Z,24.50
2022-12-03T23:06:10.330Z,32.20
2022-12-03T23:08:41.533Z,30.00
2022-12-03T23:11:09.880Z,32.43
2022-12-03T23:13:38.166Z,30.53
2022-12-03T23:16:06.845Z,28.60
2022-12-03T23:18:35.293Z,27.37
2022-12-03T23:21:03.784Z,30.90
2022-12-03T23:23:31.968Z,36.43
2022-12-03T23:26:02.143Z,23.53
2022-12-03T23:28:31.435Z,29.20
2022-12-03T23:30:59.704Z,36.50
2022-12-03T23:33:30.451Z,35.13
2022-12-03T23:36:01.237Z,27.13
2022-12-03T23:38:30.558Z,33.17
2022-12-03T23:40:58.790Z,30.47
2022-12-03T23:43:28.383Z,25.83
2022-12-03T23:45:56.663Z,24.13
2022-12-03T23:48:24.860Z,41.53
2022-12-03T23:50:53.084Z,31.57
2022-12-03T23:53:21.272Z,29.30
2022-12-03T23:55:49.498Z,27.47
2022-12-03T23:58:17.733Z,29.77
